createdAt,value
2018-07-08T00:01:35.676Z,3.87
2018-07-08T00:04:05.045Z,3.13
2018-07-08T00:06:35.389Z,3.63
2018-07-08T00:09:05.269Z,3.30
2018-07-08T00:11:34.601Z,3.27
2018-07-08T00:14:03.969Z,3.30
2018-07-08T00:16:36.970Z,3.50
2018-07-08T00:19:06.361Z,3.23
2018-07-08T00:21:35.732Z,3.60
2018-07-08T00:24:05.105Z,3.67
2018-07-08T00:26:37.705Z,3.30
2018-07-08T00:29:07.070Z,3.47
2018-07-08T00:31:36.485Z,3.70
2018-07-08T00:34:06.005Z,3.70
2018-07-08T00:36:39.428Z,3.50
2018-07-08T00:39:09.256Z,3.70
2018-07-08T00:41:38.389Z,3.30
2018-07-08T00:44:08.002Z,3.13
2018-07-08T00:46:38.229Z,3.20
2018-07-08T00:49:07.425Z,4.13
2018-07-08T00:51:36.308Z,3.30
2018-07-08T00:54:05.385Z,3.33
2018-07-08T00:56:34.597Z,3.47
2018-07-08T00:59:03.464Z,3.40
2018-07-08T01:01:32.605Z,2.90
2018-07-08T01:04:01.606Z,3.40
2018-07-08T01:06:32.708Z,3.97
2018-07-08T01:09:01.813Z,3.80
2018-07-08T01:11:30.929Z,3.80
2018-07-08T01:13:59.996Z,3.90
2018-07-08T01:16:50.032Z,3.70
2018-07-08T01:19:19.152Z,3.70
2018-07-08T01:21:48.488Z,3.90
2018-07-08T01:24:17.888Z,4.10
2018-07-08T01:26:52.372Z,3.87
2018-07-08T01:29:21.792Z,3.97
2018-07-08T01:31:51.127Z,3.53
2018-07-08T01:34:20.493Z,3.27
2018-07-08T01:37:02.718Z,3.70
2018-07-08T01:39:32.005Z,3.20
2018-07-08T01:42:01.445Z,4.13
2018-07-08T01:44:30.758Z,3.83
2018-07-08T01:47:02.185Z,3.53
2018-07-08T01:49:31.560Z,4.00
2018-07-08T01:52:00.872Z,4.00
2018-07-08T01:54:30.143Z,4.00
2018-07-08T01:57:07.021Z,3.60
2018-07-08T01:59:36.341Z,4.07
2018-07-08T02:02:06.199Z,3.40
2018-07-08T02:04:35.512Z,4.10
2018-07-08T02:07:18.881Z,3.97
2018-07-08T02:09:49.265Z,3.50
2018-07-08T02:12:19.104Z,3.20
2018-07-08T02:14:56.464Z,3.43
2018-07-08T02:17:25.576Z,3.47
2018-07-08T02:19:54.650Z,3.60
2018-07-08T02:22:23.704Z,3.87
2018-07-08T02:24:52.812Z,3.57
2018-07-08T02:27:22.469Z,3.60
2018-07-08T02:29:51.814Z,3.90
2018-07-08T02:32:21.286Z,4.10
2018-07-08T02:34:50.517Z,4.67
2018-07-08T02:37:19.936Z,3.50
2018-07-08T02:39:49.322Z,4.00
2018-07-08T02:42:18.723Z,4.43
2018-07-08T02:44:48.133Z,4.00
2018-07-08T02:47:17.530Z,4.50
2018-07-08T02:49:54.849Z,3.80
2018-07-08T02:52:24.062Z,4.53
2018-07-08T02:54:54.224Z,3.83
2018-07-08T02:57:23.291Z,3.53
2018-07-08T02:59:52.392Z,4.03
2018-07-08T03:02:21.606Z,3.63
2018-07-08T03:04:51.009Z,4.10
2018-07-08T03:07:20.410Z,3.47
2018-07-08T03:09:49.793Z,3.50
2018-07-08T03:12:19.148Z,4.33
2018-07-08T03:14:48.494Z,3.67
2018-07-08T03:17:17.869Z,3.90
2018-07-08T03:19:46.964Z,3.80
2018-07-08T03:22:16.065Z,3.80
2018-07-08T03:24:45.172Z,4.27
2018-07-08T03:27:14.257Z,3.80
2018-07-08T03:29:43.328Z,3.93
2018-07-08T03:32:12.458Z,4.17
2018-07-08T03:34:41.558Z,3.67
2018-07-08T03:37:14.976Z,3.37
2018-07-08T03:39:44.075Z,3.63
2018-07-08T03:42:13.157Z,3.77
2018-07-08T03:44:42.293Z,3.33
2018-07-08T03:47:13.444Z,3.50
2018-07-08T03:49:42.780Z,3.77
2018-07-08T03:52:12.122Z,3.77
2018-07-08T03:54:41.498Z,3.63
2018-07-08T03:57:27.472Z,3.83
2018-07-08T03:59:56.885Z,3.87
2018-07-08T04:02:26.289Z,4.43
2018-07-08T04:04:55.610Z,4.10
2018-07-08T04:07:24.956Z,3.77
2018-07-08T04:09:54.301Z,3.87
2018-07-08T04:12:23.640Z,3.80
2018-07-08T04:15:07.124Z,3.40
2018-07-08T04:17:36.459Z,3.70
2018-07-08T04:20:05.872Z,4.10
2018-07-08T04:22:35.296Z,3.67
2018-07-08T04:25:13.375Z,4.03
2018-07-08T04:27:42.424Z,4.60
2018-07-08T04:30:11.763Z,3.93
2018-07-08T04:32:41.140Z,3.63
2018-07-08T04:35:18.773Z,3.50
2018-07-08T04:37:48.236Z,3.97
2018-07-08T04:40:17.574Z,4.17
2018-07-08T04:42:46.913Z,4.00
2018-07-08T04:45:17.293Z,3.90
2018-07-08T04:47:46.689Z,4.20
2018-07-08T04:50:19.061Z,3.90
2018-07-08T04:52:48.136Z,3.80
2018-07-08T04:55:20.590Z,3.97
2018-07-08T04:57:50.857Z,3.80
2018-07-08T05:00:20.182Z,3.87
2018-07-08T05:02:49.784Z,4.23
2018-07-08T05:05:25.028Z,4.20
2018-07-08T05:07:54.384Z,4.53
2018-07-08T05:10:30.101Z,4.37
2018-07-08T05:12:59.557Z,3.90
2018-07-08T05:15:29.005Z,4.00
2018-07-08T05:17:58.301Z,3.93
2018-07-08T05:20:27.705Z,4.20
2018-07-08T05:22:56.989Z,3.80
2018-07-08T05:25:28.442Z,4.17
2018-07-08T05:27:57.800Z,4.00
2018-07-08T05:30:27.193Z,4.33
2018-07-08T05:32:56.621Z,4.43
2018-07-08T05:35:27.108Z,4.57
2018-07-08T05:37:56.578Z,4.50
2018-07-08T05:40:25.969Z,4.10
2018-07-08T05:42:55.388Z,3.90
2018-07-08T05:45:32.879Z,3.73
2018-07-08T05:48:02.197Z,3.70
2018-07-08T05:50:31.571Z,3.73
2018-07-08T05:53:00.934Z,3.90
2018-07-08T05:55:46.941Z,4.20
2018-07-08T05:58:16.401Z,3.70
2018-07-08T06:00:45.804Z,3.20
2018-07-08T06:03:15.177Z,3.43
2018-07-08T06:05:52.145Z,3.50
2018-07-08T06:08:21.512Z,3.37
2018-07-08T06:10:50.924Z,3.30
2018-07-08T06:13:20.193Z,3.30
2018-07-08T06:15:57.265Z,3.67
2018-07-08T06:18:26.700Z,3.90
2018-07-08T06:20:56.069Z,4.53
2018-07-08T06:23:25.442Z,3.43
2018-07-08T06:25:55.103Z,3.10
2018-07-08T06:28:24.409Z,3.50
2018-07-08T06:30:53.753Z,2.93
2018-07-08T06:33:23.069Z,2.63
2018-07-08T06:35:53.545Z,3.27
2018-07-08T06:38:22.815Z,2.57
2018-07-08T06:40:52.097Z,2.53
2018-07-08T06:43:21.469Z,2.17
2018-07-08T06:46:02.134Z,2.50
2018-07-08T06:48:31.490Z,1.97
2018-07-08T06:51:00.861Z,1.60
2018-07-08T06:53:30.245Z,1.77
2018-07-08T06:56:00.685Z,1.47
2018-07-08T06:58:30.162Z,1.83
2018-07-08T07:00:59.484Z,2.07
2018-07-08T07:03:28.869Z,1.83
2018-07-08T07:06:09.761Z,1.67
2018-07-08T07:08:39.242Z,2.00
2018-07-08T07:11:08.675Z,1.27
2018-07-08T07:13:38.141Z,1.30
2018-07-08T07:16:13.218Z,1.60
2018-07-08T07:18:42.572Z,1.90
2018-07-08T07:21:11.996Z,1.57
2018-07-08T07:23:41.357Z,1.40
2018-07-08T07:26:22.953Z,1.53
2018-07-08T07:28:52.509Z,1.97
2018-07-08T07:31:21.820Z,1.33
2018-07-08T07:33:51.388Z,1.53
2018-07-08T07:36:21.873Z,1.47
2018-07-08T07:38:51.373Z,1.40
2018-07-08T07:41:20.734Z,1.20
2018-07-08T07:43:50.308Z,1.30
2018-07-08T07:46:20.739Z,1.17
2018-07-08T07:48:50.121Z,1.20
2018-07-08T07:51:19.465Z,1.30
2018-07-08T07:53:48.833Z,1.23
2018-07-08T07:56:18.402Z,1.20
2018-07-08T07:58:47.738Z,1.40
2018-07-08T08:01:17.173Z,1.50
2018-07-08T08:03:46.497Z,1.07
2018-07-08T08:06:50.894Z,1.33
2018-07-08T08:09:20.293Z,1.43
2018-07-08T08:11:49.713Z,1.30
2018-07-08T08:14:19.773Z,1.30
2018-07-08T08:16:59.225Z,0.95
2018-07-08T08:19:28.719Z,1.07
2018-07-08T08:21:58.309Z,0.80
2018-07-08T08:24:27.705Z,1.07
2018-07-08T08:27:04.693Z,1.20
2018-07-08T08:29:34.030Z,1.20
2018-07-08T08:32:03.418Z,1.32
2018-07-08T08:34:54.349Z,1.12
2018-07-08T08:37:25.046Z,1.20
2018-07-08T08:39:54.894Z,1.05
2018-07-08T08:42:24.332Z,0.85
2018-07-08T08:44:54.658Z,0.87
2018-07-08T08:47:24.375Z,0.90
2018-07-08T08:49:54.282Z,0.90
2018-07-08T08:52:23.607Z,1.20
2018-07-08T08:55:00.837Z,0.90
2018-07-08T08:57:30.145Z,0.70
2018-07-08T08:59:59.584Z,0.53
2018-07-08T09:02:28.982Z,0.70
2018-07-08T09:04:59.200Z,0.40
2018-07-08T09:07:28.036Z,0.60
2018-07-08T09:09:57.262Z,0.60
2018-07-08T09:12:26.658Z,0.68
2018-07-08T09:14:57.802Z,0.45
2018-07-08T09:17:27.222Z,0.80
2018-07-08T09:19:56.716Z,0.57
2018-07-08T09:22:26.163Z,0.60
2018-07-08T09:24:55.615Z,0.70
2018-07-08T09:27:24.976Z,0.70
2018-07-08T09:29:54.402Z,0.72
2018-07-08T09:32:23.918Z,0.82
2018-07-08T09:34:53.330Z,0.70
2018-07-08T09:37:22.715Z,0.80
2018-07-08T09:39:52.481Z,1.30
2018-07-08T09:42:21.875Z,1.42
2018-07-08T09:44:51.176Z,1.57
2018-07-08T09:47:20.530Z,0.80
2018-07-08T09:49:50.006Z,1.20
2018-07-08T09:52:19.144Z,2.40
2018-07-08T09:54:48.555Z,1.50
2018-07-08T09:57:17.645Z,0.82
2018-07-08T09:59:47.063Z,0.82
2018-07-08T10:02:26.298Z,0.78
2018-07-08T10:04:57.106Z,0.60
2018-07-08T10:07:26.491Z,0.70
2018-07-08T10:09:55.817Z,0.70
2018-07-08T10:12:26.191Z,0.50
2018-07-08T10:15:28.713Z,0.80
2018-07-08T10:17:58.343Z,0.57
2018-07-08T10:20:27.819Z,0.47
2018-07-08T10:22:57.195Z,0.30
2018-07-08T10:25:36.817Z,0.53
2018-07-08T10:28:12.727Z,0.50
2018-07-08T10:30:51.289Z,0.70
2018-07-08T10:33:23.751Z,0.50
2018-07-08T10:36:03.069Z,0.50
2018-07-08T10:38:34.881Z,0.42
2018-07-08T10:41:07.307Z,0.53
2018-07-08T10:43:36.714Z,0.60
2018-07-08T10:46:07.280Z,0.45
2018-07-08T10:48:36.738Z,0.60
2018-07-08T10:51:06.193Z,0.70
2018-07-08T10:53:35.219Z,0.60
2018-07-08T10:56:04.634Z,0.50
2018-07-08T10:58:41.747Z,0.70
2018-07-08T11:01:11.077Z,0.60
2018-07-08T11:03:40.494Z,0.60
2018-07-08T11:06:11.620Z,0.80
2018-07-08T11:08:42.193Z,0.62
2018-07-08T11:11:11.642Z,0.90
2018-07-08T11:13:41.078Z,0.80
2018-07-08T11:16:10.559Z,0.70
2018-07-08T11:18:39.936Z,0.90
2018-07-08T11:21:09.320Z,0.90
2018-07-08T11:23:38.763Z,0.75
2018-07-08T11:26:08.106Z,0.82
2018-07-08T11:28:37.485Z,0.90
2018-07-08T11:31:06.965Z,0.70
2018-07-08T11:33:36.321Z,0.90
2018-07-08T11:36:05.796Z,0.70
2018-07-08T11:38:35.892Z,0.80
2018-07-08T11:41:05.223Z,1.00
2018-07-08T11:43:34.633Z,0.82
2018-07-08T11:46:06.185Z,1.00
2018-07-08T11:48:35.573Z,0.72
2018-07-08T11:51:04.980Z,1.05
2018-07-08T11:53:34.325Z,1.10
2018-07-08T11:56:03.850Z,0.85
2018-07-08T11:58:33.122Z,0.98
2018-07-08T12:01:02.479Z,0.95
2018-07-08T12:03:32.025Z,1.17
2018-07-08T12:06:10.685Z,1.10
2018-07-08T12:08:40.045Z,1.00
2018-07-08T12:11:09.375Z,0.90
2018-07-08T12:13:38.698Z,0.93
2018-07-08T12:16:25.066Z,0.88
2018-07-08T12:18:54.317Z,1.20
2018-07-08T12:21:23.613Z,0.90
2018-07-08T12:23:53.040Z,0.90
2018-07-08T12:26:36.313Z,0.90
2018-07-08T12:29:05.696Z,1.42
2018-07-08T12:31:35.121Z,0.98
2018-07-08T12:34:04.629Z,0.78
2018-07-08T12:36:42.795Z,1.07
2018-07-08T12:39:13.101Z,1.10
2018-07-08T12:41:42.940Z,0.90
2018-07-08T12:44:12.407Z,0.90
2018-07-08T12:47:03.197Z,0.80
2018-07-08T12:49:32.590Z,0.95
2018-07-08T12:52:02.138Z,1.07
2018-07-08T12:54:32.637Z,1.20
2018-07-08T12:57:03.241Z,1.10
2018-07-08T12:59:33.491Z,1.07
2018-07-08T13:02:02.560Z,1.10
2018-07-08T13:04:31.991Z,1.05
2018-07-08T13:07:03.377Z,0.82
2018-07-08T13:09:32.778Z,0.90
2018-07-08T13:12:02.315Z,0.90
2018-07-08T13:14:31.749Z,0.80
2018-07-08T13:17:06.902Z,0.80
2018-07-08T13:19:36.337Z,1.00
2018-07-08T13:22:05.781Z,0.85
2018-07-08T13:24:35.196Z,0.95
2018-07-08T13:27:05.714Z,0.88
2018-07-08T13:29:35.066Z,0.80
2018-07-08T13:32:04.428Z,0.88
2018-07-08T13:34:34.686Z,1.00
2018-07-08T13:37:04.157Z,0.98
2018-07-08T13:39:33.429Z,0.60
2018-07-08T13:42:02.874Z,0.57
2018-07-08T13:44:32.269Z,1.00
2018-07-08T13:47:01.464Z,0.50
2018-07-08T13:49:30.602Z,0.80
2018-07-08T13:52:01.248Z,0.80
2018-07-08T13:54:30.616Z,0.70
2018-07-08T13:57:03.781Z,0.95
2018-07-08T13:59:32.969Z,0.98
2018-07-08T14:02:02.015Z,0.90
2018-07-08T14:04:31.529Z,0.90
2018-07-08T14:07:04.321Z,0.80
2018-07-08T14:09:33.760Z,0.80
2018-07-08T14:12:03.153Z,1.10
2018-07-08T14:14:32.571Z,0.82
2018-07-08T14:17:06.437Z,0.80
2018-07-08T14:19:35.877Z,0.88
2018-07-08T14:22:05.273Z,0.72
2018-07-08T14:24:34.749Z,0.80
2018-07-08T14:27:08.922Z,0.80
2018-07-08T14:29:38.293Z,0.90
2018-07-08T14:32:07.746Z,0.80
2018-07-08T14:34:37.089Z,0.98
2018-07-08T14:37:07.576Z,0.70
2018-07-08T14:39:37.029Z,0.90
2018-07-08T14:42:06.502Z,0.75
2018-07-08T14:44:35.974Z,1.25
2018-07-08T14:47:05.466Z,0.80
2018-07-08T14:49:34.928Z,0.90
2018-07-08T14:52:04.359Z,0.85
2018-07-08T14:54:33.424Z,1.10
2018-07-08T14:57:07.967Z,0.80
2018-07-08T14:59:44.734Z,1.10
2018-07-08T15:02:14.180Z,0.80
2018-07-08T15:04:46.063Z,1.10
2018-07-08T15:07:15.446Z,1.10
2018-07-08T15:09:44.894Z,1.10
2018-07-08T15:12:14.289Z,1.00
2018-07-08T15:14:43.762Z,1.17
2018-07-08T15:17:21.137Z,1.10
2018-07-08T15:19:50.721Z,1.17
2018-07-08T15:22:20.213Z,0.95
2018-07-08T15:24:49.656Z,1.07
2018-07-08T15:27:19.149Z,1.55
2018-07-08T15:29:48.614Z,1.00
2018-07-08T15:32:18.093Z,1.65
2018-07-08T15:34:47.441Z,1.37
2018-07-08T15:37:24.309Z,1.52
2018-07-08T15:39:53.823Z,1.57
2018-07-08T15:42:23.395Z,1.30
2018-07-08T15:44:52.797Z,1.60
2018-07-08T15:47:22.329Z,1.42
2018-07-08T15:49:51.644Z,1.17
2018-07-08T15:52:21.143Z,1.50
2018-07-08T15:54:50.645Z,1.47
2018-07-08T15:57:20.037Z,1.42
2018-07-08T15:59:49.400Z,1.10
2018-07-08T16:02:18.917Z,1.32
2018-07-08T16:04:48.312Z,1.40
2018-07-08T16:07:25.165Z,1.52
2018-07-08T16:09:54.320Z,1.40
2018-07-08T16:12:23.444Z,1.35
2018-07-08T16:14:52.620Z,1.27
2018-07-08T16:17:21.716Z,1.65
2018-07-08T16:19:51.190Z,1.30
2018-07-08T16:22:20.621Z,1.62
2018-07-08T16:24:50.414Z,1.80
2018-07-08T16:27:19.714Z,1.90
2018-07-08T16:29:49.078Z,2.52
2018-07-08T16:32:18.417Z,2.40
2018-07-08T16:34:47.801Z,2.40
2018-07-08T16:37:25.525Z,2.27
2018-07-08T16:39:55.621Z,1.90
2018-07-08T16:42:25.009Z,2.65
2018-07-08T16:44:55.149Z,2.20
2018-07-08T16:47:24.480Z,2.37
2018-07-08T16:49:53.866Z,2.67
2018-07-08T16:52:23.265Z,2.85
2018-07-08T16:54:53.122Z,2.45
2018-07-08T16:57:22.510Z,3.15
2018-07-08T16:59:51.981Z,2.10
2018-07-08T17:02:21.381Z,2.85
2018-07-08T17:04:50.777Z,2.25
2018-07-08T17:07:20.521Z,2.27
2018-07-08T17:09:49.520Z,2.52
2018-07-08T17:12:18.840Z,2.42
2018-07-08T17:14:48.192Z,2.80
2018-07-08T17:17:17.582Z,2.92
2018-07-08T17:19:46.949Z,2.55
2018-07-08T17:22:19.601Z,2.40
2018-07-08T17:24:48.972Z,2.80
2018-07-08T17:27:18.302Z,35.75
2018-07-08T17:29:47.713Z,7.42
2018-07-08T17:32:17.105Z,6.28
2018-07-08T17:34:46.741Z,3.83
2018-07-08T17:37:16.091Z,3.33
2018-07-08T17:39:45.495Z,2.95
2018-07-08T17:42:14.894Z,3.20
2018-07-08T17:44:44.205Z,3.37
2018-07-08T17:47:19.433Z,3.30
2018-07-08T17:49:48.898Z,3.30
2018-07-08T17:52:18.259Z,3.25
2018-07-08T17:54:47.637Z,3.70
2018-07-08T17:57:17.092Z,3.15
2018-07-08T17:59:46.461Z,3.30
2018-07-08T18:02:15.652Z,2.87
2018-07-08T18:04:45.102Z,3.15
2018-07-08T18:07:14.550Z,3.12
2018-07-08T18:09:43.873Z,2.98
2018-07-08T18:12:12.974Z,2.92
2018-07-08T18:14:42.424Z,3.33
2018-07-08T18:17:20.884Z,3.37
2018-07-08T18:19:50.193Z,2.83
2018-07-08T18:22:19.558Z,3.10
2018-07-08T18:24:48.901Z,2.47
2018-07-08T18:27:18.804Z,3.17
2018-07-08T18:29:48.179Z,3.30
2018-07-08T18:32:17.714Z,2.80
2018-07-08T18:34:47.013Z,2.90
2018-07-08T18:37:16.481Z,2.90
2018-07-08T18:39:46.447Z,2.80
2018-07-08T18:42:15.757Z,3.02
2018-07-08T18:44:45.189Z,3.02
2018-07-08T18:47:14.433Z,3.37
2018-07-08T18:49:43.862Z,3.22
2018-07-08T18:52:13.173Z,3.15
2018-07-08T18:54:42.718Z,2.70
2018-07-08T18:57:14.143Z,3.37
2018-07-08T18:59:43.444Z,2.70
2018-07-08T19:02:12.769Z,3.25
2018-07-08T19:04:42.201Z,2.60
2018-07-08T19:07:16.271Z,2.83
2018-07-08T19:09:45.679Z,2.93
2018-07-08T19:12:15.029Z,2.90
2018-07-08T19:14:44.442Z,3.20
2018-07-08T19:17:14.925Z,2.80
2018-07-08T19:19:44.389Z,3.83
2018-07-08T19:22:13.620Z,3.47
2018-07-08T19:24:43.026Z,3.57
2018-07-08T19:27:12.494Z,3.40
2018-07-08T19:29:41.913Z,3.07
2018-07-08T19:32:11.286Z,3.50
2018-07-08T19:34:40.549Z,3.87
2018-07-08T19:37:26.669Z,3.43
2018-07-08T19:39:55.744Z,3.43
2018-07-08T19:42:24.841Z,3.27
2018-07-08T19:44:54.777Z,3.30
2018-07-08T19:47:23.843Z,3.10
2018-07-08T19:49:52.877Z,3.70
2018-07-08T19:52:22.012Z,3.70
2018-07-08T19:54:51.125Z,3.83
2018-07-08T19:57:20.313Z,3.67
2018-07-08T19:59:49.388Z,4.00
2018-07-08T20:02:18.525Z,3.97
2018-07-08T20:04:48.440Z,4.17
2018-07-08T20:07:17.935Z,4.10
2018-07-08T20:09:47.297Z,3.73
2018-07-08T20:12:16.580Z,3.77
2018-07-08T20:14:45.864Z,3.40
2018-07-08T20:17:23.889Z,4.17
2018-07-08T20:19:53.208Z,3.70
2018-07-08T20:22:22.602Z,3.90
2018-07-08T20:24:52.181Z,3.90
2018-07-08T20:27:21.628Z,4.00
2018-07-08T20:29:50.916Z,3.87
2018-07-08T20:32:27.001Z,3.80
2018-07-08T20:35:00.908Z,4.10
2018-07-08T20:37:30.585Z,4.10
2018-07-08T20:39:59.929Z,4.03
2018-07-08T20:42:29.954Z,4.30
2018-07-08T20:44:59.470Z,4.13
2018-07-08T20:47:28.785Z,3.97
2018-07-08T20:49:58.217Z,4.23
2018-07-08T20:52:27.561Z,4.33
2018-07-08T20:54:58.026Z,3.80
2018-07-08T20:57:27.320Z,3.70
2018-07-08T20:59:57.608Z,4.27
2018-07-08T21:02:27.026Z,4.33
2018-07-08T21:05:17.749Z,3.50
2018-07-08T21:07:47.200Z,3.73
2018-07-08T21:10:16.606Z,12.33
2018-07-08T21:12:46.155Z,17.03
2018-07-08T21:15:20.677Z,8.13
2018-07-08T21:17:50.354Z,4.90
2018-07-08T21:20:19.788Z,4.27
2018-07-08T21:22:49.074Z,3.93
2018-07-08T21:25:23.749Z,4.00
2018-07-08T21:27:53.205Z,4.40
2018-07-08T21:30:22.527Z,4.37
2018-07-08T21:32:51.837Z,4.43
2018-07-08T21:35:22.176Z,4.60
2018-07-08T21:37:51.678Z,3.90
2018-07-08T21:40:21.008Z,4.50
2018-07-08T21:42:50.511Z,4.67
2018-07-08T21:45:25.266Z,4.73
2018-07-08T21:47:55.441Z,4.80
2018-07-08T21:50:24.801Z,4.83
2018-07-08T21:52:54.223Z,4.73
2018-07-08T21:55:24.581Z,4.83
2018-07-08T21:57:54.109Z,4.50
2018-07-08T22:00:31.841Z,4.73
2018-07-08T22:03:01.582Z,4.20
2018-07-08T22:05:32.067Z,4.50
2018-07-08T22:08:03.301Z,5.47
2018-07-08T22:10:33.365Z,5.77
2018-07-08T22:13:03.515Z,6.17
2018-07-08T22:15:37.809Z,5.30
2018-07-08T22:18:07.117Z,5.77
2018-07-08T22:20:36.508Z,5.57
2018-07-08T22:23:05.860Z,5.17
2018-07-08T23:21:32.428Z,6.10
2018-07-08T23:24:01.838Z,6.00
2018-07-08T23:26:42.078Z,6.00
2018-07-08T23:29:11.433Z,6.17
2018-07-08T23:31:40.882Z,5.90
2018-07-08T23:34:10.322Z,5.43
2018-07-08T23:36:42.804Z,6.20
2018-07-08T23:39:12.228Z,6.60
2018-07-08T23:41:42.061Z,5.93
2018-07-08T23:44:11.445Z,5.93
2018-07-08T23:47:15.573Z,5.93
2018-07-08T23:49:44.955Z,5.93
2018-07-08T23:52:14.306Z,5.83
2018-07-08T23:54:43.854Z,6.27
2018-07-08T23:57:30.081Z,6.17
2018-07-08T23:59:59.454Z,5.90
